Time;durP1;ratioP1;P1;durP2;ratioP2;P2;SDS_P1;SDS_P2;PMS_P1;PMS_P2;Temp;Humidity;BMP_temperature;BMP_pressure;BME280_temperature;BME280_humidity;BME280_pressure;Samples;Min_cycle;Max_cycle;Signal;HPM_P1;HPM_P2
2023/08/08 00:01:09;;;;;;;8.80;8.60;;;11.80;99.90;;;;;;6261040;22;20292;-79
2023/08/08 00:03:37;;;;;;;8.77;8.57;;;11.80;99.90;;;;;;6258613;22;20204;-80
2023/08/08 00:06:04;;;;;;;8.83;8.60;;;11.80;99.90;;;;;;6259032;22;20232;-79
2023/08/08 00:08:32;;;;;;;9.00;8.70;;;11.80;99.90;;;;;;6258796;22;20206;-79
2023/08/08 00:10:59;;;;;;;8.73;8.53;;;11.80;99.90;;;;;;6259620;22;20230;-79
2023/08/08 00:13:26;;;;;;;9.40;9.10;;;11.80;99.90;;;;;;6258476;22;20206;-78
2023/08/08 00:15:53;;;;;;;9.20;8.90;;;11.80;99.90;;;;;;6258055;22;20273;-79
2023/08/08 00:18:20;;;;;;;9.33;9.03;;;11.80;99.90;;;;;;6257572;22;20214;-80
2023/08/08 00:20:48;;;;;;;9.27;8.97;;;11.80;99.90;;;;;;6256634;22;20224;-80
2023/08/08 00:23:15;;;;;;;9.23;8.93;;;11.70;99.90;;;;;;6259010;22;20249;-79
2023/08/08 00:25:42;;;;;;;8.90;8.70;;;11.70;99.90;;;;;;6266568;22;20225;-79
2023/08/08 00:28:09;;;;;;;9.40;9.10;;;11.70;99.90;;;;;;6260138;22;20213;-79
2023/08/08 00:30:36;;;;;;;9.10;8.80;;;11.70;99.90;;;;;;6259046;22;20276;-80
2023/08/08 00:33:04;;;;;;;9.10;8.80;;;11.80;99.90;;;;;;6258577;22;20256;-80
2023/08/08 00:35:31;;;;;;;8.83;8.63;;;11.80;99.90;;;;;;6257632;22;20225;-79
2023/08/08 00:37:59;;;;;;;8.80;8.60;;;11.90;99.90;;;;;;6257527;22;20202;-79
2023/08/08 00:40:26;;;;;;;9.00;8.80;;;11.90;99.90;;;;;;6257215;22;20226;-79
2023/08/08 00:42:53;;;;;;;8.93;8.73;;;11.90;99.90;;;;;;6258603;22;20214;-79
2023/08/08 00:45:20;;;;;;;9.30;9.00;;;12.00;99.90;;;;;;6257968;22;20200;-79
2023/08/08 00:47:47;;;;;;;9.43;9.13;;;11.90;99.90;;;;;;6257398;22;20202;-79
2023/08/08 00:50:15;;;;;;;9.63;9.33;;;12.00;99.90;;;;;;6257958;22;20289;-79
2023/08/08 00:52:44;;;;;;;9.60;9.30;;;12.00;99.90;;;;;;6257074;22;20195;-79
2023/08/08 00:55:14;;;;;;;9.60;9.30;;;12.00;99.90;;;;;;6263097;22;20201;-79
2023/08/08 00:57:41;;;;;;;9.67;9.37;;;12.00;99.90;;;;;;6255963;22;20245;-80
2023/08/08 01:00:10;;;;;;;9.70;9.40;;;12.00;99.90;;;;;;6255849;22;20675;-80
2023/08/08 01:02:37;;;;;;;9.70;9.40;;;12.00;99.90;;;;;;6257059;22;20202;-80
2023/08/08 01:05:06;;;;;;;9.50;9.20;;;12.00;99.90;;;;;;6257161;22;20190;-78
2023/08/08 01:07:40;;;;;;;9.70;9.40;;;12.00;99.90;;;;;;6259276;22;20234;-79
2023/08/08 01:10:13;;;;;;;9.50;9.20;;;12.10;99.90;;;;;;6257726;22;20252;-79
2023/08/08 01:12:43;;;;;;;9.90;9.60;;;12.10;99.90;;;;;;6259118;22;20221;-80
2023/08/08 01:15:11;;;;;;;9.77;9.47;;;12.10;99.90;;;;;;6259169;22;20206;-78
2023/08/08 01:17:39;;;;;;;9.93;9.63;;;12.10;99.90;;;;;;6259789;22;20210;-79
2023/08/08 01:20:07;;;;;;;9.70;9.40;;;12.10;99.90;;;;;;6261222;22;20186;-80
2023/08/08 01:22:39;;;;;;;9.77;9.47;;;12.10;99.90;;;;;;6259615;22;20249;-79
2023/08/08 01:25:09;;;;;;;9.53;9.23;;;12.10;99.90;;;;;;6259607;22;20274;-79
2023/08/08 01:27:37;;;;;;;9.90;9.60;;;12.10;99.90;;;;;;6259219;22;20201;-80
2023/08/08 01:30:07;;;;;;;10.00;9.70;;;12.20;99.90;;;;;;6259131;22;20195;-80
2023/08/08 01:32:34;;;;;;;10.13;9.83;;;12.20;99.90;;;;;;6257868;22;20230;-79
2023/08/08 01:35:01;;;;;;;10.00;9.70;;;12.30;99.90;;;;;;6258433;22;20277;-79
2023/08/08 01:37:37;;;;;;;10.30;10.00;;;12.30;99.90;;;;;;6258629;22;20198;-79
2023/08/08 01:40:09;;;;;;;9.97;9.67;;;12.30;99.90;;;;;;6258346;22;20189;-78
2023/08/08 01:42:36;;;;;;;9.97;9.67;;;12.40;99.90;;;;;;6258697;22;20208;-80
2023/08/08 01:45:04;;;;;;;9.87;9.57;;;12.40;99.90;;;;;;6260582;22;20194;-79
2023/08/08 01:47:31;;;;;;;9.67;9.37;;;12.40;99.90;;;;;;6262613;22;20674;-78
2023/08/08 01:49:58;;;;;;;9.80;9.50;;;12.30;99.90;;;;;;6260226;22;20208;-79
2023/08/08 01:52:25;;;;;;;9.93;9.63;;;12.40;99.90;;;;;;6259493;22;20209;-80
2023/08/08 01:54:52;;;;;;;9.80;9.50;;;12.40;99.90;;;;;;6259658;22;20201;-80
2023/08/08 01:57:22;;;;;;;10.00;9.70;;;12.40;99.90;;;;;;6258691;22;20229;-80
2023/08/08 01:59:49;;;;;;;9.93;9.63;;;12.40;99.90;;;;;;6254822;22;20201;-78
2023/08/08 02:02:17;;;;;;;10.00;9.70;;;12.40;99.90;;;;;;6253487;22;20265;-78
2023/08/08 02:04:44;;;;;;;9.80;9.50;;;12.40;99.90;;;;;;6253431;22;20206;-79
2023/08/08 02:07:11;;;;;;;9.77;9.47;;;12.40;99.90;;;;;;6253753;22;20248;-77
2023/08/08 02:09:38;;;;;;;9.77;9.47;;;12.40;99.90;;;;;;6253479;22;20204;-78
2023/08/08 02:12:06;;;;;;;9.70;9.40;;;12.40;99.90;;;;;;6253697;22;20229;-77
2023/08/08 02:14:34;;;;;;;10.00;9.70;;;12.40;99.90;;;;;;6254021;22;20194;-78
2023/08/08 02:17:02;;;;;;;9.83;9.53;;;12.50;99.90;;;;;;6253409;22;20206;-78
2023/08/08 02:19:29;;;;;;;9.90;9.60;;;12.50;99.90;;;;;;6253368;22;20273;-78
2023/08/08 02:21:56;;;;;;;10.17;9.87;;;12.50;99.90;;;;;;6253328;22;20715;-78
2023/08/08 02:24:23;;;;;;;10.27;9.97;;;12.50;99.90;;;;;;6253061;22;20277;-78
2023/08/08 02:26:50;;;;;;;9.90;9.60;;;12.50;99.90;;;;;;6254608;22;20207;-79
2023/08/08 02:29:17;;;;;;;10.00;9.70;;;12.50;99.90;;;;;;6255273;22;20249;-79
2023/08/08 02:31:45;;;;;;;9.87;9.57;;;12.50;99.90;;;;;;6254863;22;20186;-79
2023/08/08 02:34:13;;;;;;;10.50;10.20;;;12.50;99.90;;;;;;6255777;22;20237;-79
2023/08/08 02:36:39;;;;;;;10.30;10.00;;;12.50;99.90;;;;;;6260970;22;20244;-79
2023/08/08 02:39:06;;;;;;;9.90;9.60;;;12.50;99.90;;;;;;6254504;22;20272;-79
2023/08/08 02:41:33;;;;;;;9.90;9.60;;;12.50;99.90;;;;;;6254445;22;20217;-79
2023/08/08 02:44:00;;;;;;;9.93;9.63;;;12.50;99.90;;;;;;6254579;22;20191;-79
2023/08/08 02:46:27;;;;;;;9.93;9.63;;;12.50;99.90;;;;;;6255922;22;20221;-79
2023/08/08 02:48:56;;;;;;;10.20;9.90;;;12.50;99.90;;;;;;6254558;22;20273;-79
2023/08/08 02:51:23;;;;;;;10.00;9.70;;;12.50;99.90;;;;;;6254641;22;20194;-79
2023/08/08 02:53:50;;;;;;;9.40;9.10;;;12.50;99.90;;;;;;6254664;22;20201;-79
2023/08/08 02:56:17;;;;;;;9.70;9.40;;;12.50;99.90;;;;;;6254479;22;20203;-79
2023/08/08 02:58:44;;;;;;;9.50;9.20;;;12.50;99.90;;;;;;6254543;22;20191;-79
2023/08/08 03:01:13;;;;;;;9.60;9.30;;;12.50;99.90;;;;;;6253958;22;20190;-79
2023/08/08 03:03:40;;;;;;;9.57;9.27;;;12.50;99.90;;;;;;6254876;22;20198;-79
2023/08/08 03:06:09;;;;;;;9.70;9.40;;;12.50;99.90;;;;;;6254788;22;20194;-79
2023/08/08 03:08:36;;;;;;;9.40;9.10;;;12.50;99.90;;;;;;6254720;22;20339;-79
2023/08/08 03:11:03;;;;;;;9.30;9.00;;;12.50;99.90;;;;;;6254375;22;20289;-79
2023/08/08 03:13:30;;;;;;;9.47;9.17;;;12.40;99.90;;;;;;6254875;22;20195;-79
2023/08/08 03:15:57;;;;;;;9.03;8.73;;;12.40;99.90;;;;;;6255013;22;20281;-78
2023/08/08 03:18:25;;;;;;;8.80;8.60;;;12.30;99.90;;;;;;6255143;22;20256;-79
2023/08/08 03:20:52;;;;;;;9.03;8.73;;;12.30;99.90;;;;;;6254466;22;20194;-79
2023/08/08 03:23:23;;;;;;;8.93;8.63;;;12.30;99.90;;;;;;6254474;22;20221;-79
2023/08/08 03:25:50;;;;;;;9.10;8.80;;;12.30;99.90;;;;;;6258973;22;20261;-78
2023/08/08 03:28:17;;;;;;;9.00;8.70;;;12.30;99.90;;;;;;6253691;22;20202;-80
2023/08/08 03:30:44;;;;;;;9.10;8.80;;;12.30;99.90;;;;;;6254067;22;20285;-79
2023/08/08 03:33:11;;;;;;;8.70;8.50;;;12.30;99.90;;;;;;6254395;22;20204;-79
2023/08/08 03:35:38;;;;;;;9.20;8.90;;;12.30;99.90;;;;;;6254342;22;20221;-78
2023/08/08 03:38:05;;;;;;;9.40;9.10;;;12.20;99.90;;;;;;6254956;22;20209;-78
2023/08/08 03:40:33;;;;;;;9.80;9.50;;;12.20;99.90;;;;;;6254863;22;20218;-79
2023/08/08 03:43:01;;;;;;;9.77;9.47;;;12.20;99.90;;;;;;6255942;22;20205;-78
2023/08/08 03:45:29;;;;;;;9.07;8.77;;;12.10;99.90;;;;;;6259150;22;20272;-79
2023/08/08 03:47:56;;;;;;;9.13;8.83;;;12.00;99.90;;;;;;6275312;22;20288;-78
2023/08/08 03:50:23;;;;;;;8.90;8.60;;;12.10;99.90;;;;;;6275539;22;20205;-78
2023/08/08 03:52:50;;;;;;;8.90;8.60;;;12.00;99.90;;;;;;6275945;22;20202;-78
2023/08/08 03:55:17;;;;;;;9.10;8.80;;;12.00;99.90;;;;;;6277280;22;20196;-78
2023/08/08 03:57:46;;;;;;;9.10;8.80;;;12.00;99.90;;;;;;6259781;22;21049;-79
2023/08/08 04:00:13;;;;;;;9.30;9.00;;;12.00;99.90;;;;;;6256860;22;20194;-79
2023/08/08 04:02:40;;;;;;;9.00;8.70;;;11.90;99.90;;;;;;6256435;22;20197;-79
2023/08/08 04:05:08;;;;;;;9.30;9.00;;;11.90;99.90;;;;;;6256915;22;20194;-79
2023/08/08 04:07:35;;;;;;;9.10;8.80;;;11.90;99.90;;;;;;6256324;22;20225;-78
2023/08/08 04:10:03;;;;;;;9.23;8.93;;;11.90;99.90;;;;;;6255779;22;20221;-79
2023/08/08 04:12:30;;;;;;;9.20;8.90;;;11.90;99.90;;;;;;6255233;22;20198;-79
2023/08/08 04:14:58;;;;;;;9.13;8.83;;;11.80;99.90;;;;;;6262349;22;20327;-78
2023/08/08 04:17:25;;;;;;;9.37;9.07;;;11.80;99.90;;;;;;6262093;22;20267;-80
2023/08/08 04:19:52;;;;;;;9.43;9.13;;;11.80;99.90;;;;;;6262596;22;20217;-79
2023/08/08 04:22:19;;;;;;;9.40;9.10;;;11.80;99.90;;;;;;6259403;22;20210;-78
2023/08/08 04:24:46;;;;;;;9.30;9.00;;;11.80;99.90;;;;;;6258030;22;20218;-78
2023/08/08 04:27:13;;;;;;;9.50;9.20;;;11.70;99.90;;;;;;6257094;22;20202;-78
2023/08/08 04:29:40;;;;;;;9.70;9.40;;;11.70;99.90;;;;;;6256629;22;20194;-78
2023/08/08 04:32:09;;;;;;;9.70;9.40;;;11.60;99.90;;;;;;6260446;22;20213;-78
2023/08/08 04:34:36;;;;;;;9.67;9.37;;;11.60;99.90;;;;;;6257901;22;20206;-77
2023/08/08 04:37:03;;;;;;;9.50;9.20;;;11.60;99.90;;;;;;6257125;22;20209;-78
2023/08/08 04:39:30;;;;;;;9.37;9.07;;;11.60;99.90;;;;;;6255845;22;20233;-78
2023/08/08 04:41:57;;;;;;;9.40;9.10;;;11.50;99.90;;;;;;6255485;22;20253;-78
2023/08/08 04:44:24;;;;;;;9.57;9.27;;;11.50;99.90;;;;;;6255413;22;20194;-78
2023/08/08 04:46:51;;;;;;;9.60;9.30;;;11.50;99.90;;;;;;6255524;22;20280;-78
2023/08/08 04:49:19;;;;;;;9.50;9.20;;;11.50;99.90;;;;;;6256504;22;20203;-79
2023/08/08 04:51:47;;;;;;;9.43;9.13;;;11.50;99.90;;;;;;6256382;22;20225;-79
2023/08/08 04:54:14;;;;;;;9.00;8.70;;;11.50;99.90;;;;;;6257471;22;20206;-80
2023/08/08 04:56:41;;;;;;;8.90;8.60;;;11.50;99.90;;;;;;6257214;22;20202;-80
2023/08/08 04:59:08;;;;;;;9.20;8.90;;;11.50;99.90;;;;;;6256431;22;20202;-79
2023/08/08 05:01:35;;;;;;;9.30;9.00;;;11.50;99.90;;;;;;6256557;22;20277;-79
2023/08/08 05:04:02;;;;;;;8.63;8.43;;;11.50;99.90;;;;;;6261052;22;20204;-79
2023/08/08 05:06:31;;;;;;;9.00;8.70;;;11.50;99.90;;;;;;6255431;22;20665;-79
2023/08/08 05:08:58;;;;;;;9.03;8.73;;;11.60;99.90;;;;;;6255497;22;20280;-79
2023/08/08 05:11:25;;;;;;;9.40;9.10;;;11.60;99.90;;;;;;6256477;22;20228;-79
2023/08/08 05:13:52;;;;;;;9.50;9.20;;;11.60;99.90;;;;;;6255500;22;20209;-79
2023/08/08 05:16:19;;;;;;;9.57;9.27;;;11.70;99.90;;;;;;6255738;22;20194;-79
2023/08/08 05:18:46;;;;;;;9.37;9.07;;;11.70;99.90;;;;;;6256148;22;20960;-78
2023/08/08 05:21:13;;;;;;;9.63;9.33;;;11.80;99.90;;;;;;6255868;22;20225;-79
2023/08/08 05:23:42;;;;;;;9.00;8.70;;;11.80;99.90;;;;;;6256097;22;20285;-78
2023/08/08 05:26:09;;;;;;;9.30;9.00;;;11.90;99.90;;;;;;6256162;22;20205;-79
2023/08/08 05:28:36;;;;;;;9.50;9.20;;;12.00;99.90;;;;;;6255570;22;20206;-79
2023/08/08 05:31:03;;;;;;;9.40;9.10;;;12.00;99.90;;;;;;6255252;22;20198;-78
2023/08/08 05:33:30;;;;;;;9.30;9.00;;;12.10;99.90;;;;;;6255594;22;20195;-79
2023/08/08 05:35:57;;;;;;;9.20;8.90;;;12.20;99.90;;;;;;6256031;22;20202;-79
2023/08/08 05:38:24;;;;;;;9.50;9.20;;;12.30;99.90;;;;;;6256048;22;20204;-79
2023/08/08 05:40:53;;;;;;;9.50;9.20;;;12.40;99.90;;;;;;6255944;22;20229;-79
2023/08/08 05:43:21;;;;;;;9.60;9.30;;;12.50;99.90;;;;;;6257747;22;20234;-78
2023/08/08 05:45:48;;;;;;;9.80;9.50;;;12.60;99.90;;;;;;6255883;22;20190;-79
2023/08/08 05:48:15;;;;;;;9.80;9.50;;;12.70;99.90;;;;;;6255614;22;20216;-78
2023/08/08 05:50:42;;;;;;;9.90;9.60;;;12.80;99.90;;;;;;6255141;22;20198;-79
2023/08/08 05:53:09;;;;;;;10.17;9.87;;;12.80;99.90;;;;;;6263223;22;20195;-78
2023/08/08 05:55:36;;;;;;;10.20;9.90;;;12.90;99.90;;;;;;6255370;22;20205;-79
2023/08/08 05:58:05;;;;;;;10.40;10.10;;;13.00;99.90;;;;;;6255923;22;20221;-79
2023/08/08 06:00:33;;;;;;;10.50;10.20;;;13.10;99.90;;;;;;6254992;22;20218;-78
2023/08/08 06:03:00;;;;;;;10.43;10.13;;;13.20;99.90;;;;;;6255892;22;20285;-77
2023/08/08 06:05:28;;;;;;;10.60;10.30;;;13.30;99.90;;;;;;6257081;22;20256;-78
2023/08/08 06:07:56;;;;;;;10.90;10.60;;;13.50;99.90;;;;;;6256076;22;20202;-79
2023/08/08 06:10:25;;;;;;;10.90;10.60;;;13.60;99.90;;;;;;6260890;22;20216;-78
2023/08/08 06:12:52;;;;;;;10.47;10.17;;;13.80;99.90;;;;;;6267821;22;20222;-79
2023/08/08 06:15:21;;;;;;;10.90;10.60;;;13.80;99.90;;;;;;6264318;22;20206;-77
2023/08/08 06:17:48;;;;;;;10.40;10.10;;;13.90;99.90;;;;;;6260064;22;20249;-78
2023/08/08 06:20:15;;;;;;;10.77;10.47;;;13.90;99.90;;;;;;6258656;22;20277;-79
2023/08/08 06:22:43;;;;;;;10.70;10.40;;;14.00;99.90;;;;;;6257857;22;20285;-79
2023/08/08 06:25:10;;;;;;;10.50;10.20;;;13.90;99.90;;;;;;6257585;22;20225;-79
2023/08/08 06:27:38;;;;;;;10.57;10.27;;;13.90;99.90;;;;;;6257988;22;20214;-79
2023/08/08 06:30:08;;;;;;;10.80;10.50;;;13.90;99.90;;;;;;6257498;22;20280;-78
2023/08/08 06:32:36;;;;;;;10.80;10.50;;;13.90;99.90;;;;;;6257893;22;20194;-79
2023/08/08 06:35:04;;;;;;;11.10;10.80;;;14.00;99.90;;;;;;6257851;22;20186;-78
2023/08/08 06:37:31;;;;;;;11.27;10.87;;;14.10;99.90;;;;;;6258517;22;20266;-77
2023/08/08 06:39:59;;;;;;;10.97;10.67;;;14.20;99.90;;;;;;6261235;22;20206;-78
2023/08/08 06:42:26;;;;;;;10.93;10.63;;;14.40;99.90;;;;;;6263511;22;20269;-78
2023/08/08 06:44:53;;;;;;;10.90;10.60;;;14.50;99.90;;;;;;6261803;22;20214;-79
2023/08/08 06:47:20;;;;;;;10.77;10.47;;;14.60;99.90;;;;;;6260433;22;20229;-79
2023/08/08 06:49:48;;;;;;;11.00;10.70;;;14.70;99.90;;;;;;6258348;22;20202;-79
2023/08/08 06:52:15;;;;;;;10.73;10.43;;;14.80;99.90;;;;;;6257774;22;20253;-78
2023/08/08 06:54:42;;;;;;;10.60;10.30;;;15.00;99.90;;;;;;6257614;22;20196;-79
2023/08/08 06:57:09;;;;;;;10.70;10.40;;;15.10;99.90;;;;;;6258137;22;20241;-78
2023/08/08 06:59:36;;;;;;;10.60;10.30;;;15.20;99.90;;;;;;6257623;22;20225;-77
2023/08/08 07:02:04;;;;;;;10.47;10.17;;;15.30;99.90;;;;;;6257999;22;20249;-78
2023/08/08 07:04:32;;;;;;;10.55;10.25;;;15.30;99.90;;;;;;6257599;22;20195;-78
2023/08/08 07:07:00;;;;;;;10.40;10.10;;;15.40;99.90;;;;;;6257310;22;20229;-79
2023/08/08 07:09:27;;;;;;;10.70;10.40;;;15.50;99.90;;;;;;6256346;22;20281;-79
2023/08/08 07:11:54;;;;;;;10.45;10.15;;;15.50;99.90;;;;;;6253857;22;20189;-79
2023/08/08 07:14:21;;;;;;;10.65;10.35;;;15.60;99.90;;;;;;6255051;22;20200;-78
2023/08/08 07:16:49;;;;;;;10.77;10.48;;;15.70;99.90;;;;;;6254898;22;20276;-79
2023/08/08 07:19:16;;;;;;;10.95;10.65;;;15.70;99.90;;;;;;6254565;22;20201;-79
2023/08/08 07:21:43;;;;;;;10.50;10.20;;;15.70;99.90;;;;;;6254018;22;20206;-79
2023/08/08 07:24:12;;;;;;;10.70;10.40;;;15.70;99.90;;;;;;6254400;22;20249;-79
2023/08/08 07:26:39;;;;;;;10.82;10.52;;;15.70;99.90;;;;;;6263103;22;20281;-79
2023/08/08 07:29:06;;;;;;;10.90;10.60;;;15.80;99.90;;;;;;6253744;22;20198;-79
2023/08/08 07:31:33;;;;;;;11.00;10.70;;;15.90;99.90;;;;;;6253361;22;20244;-78
2023/08/08 07:34:01;;;;;;;10.98;10.68;;;15.90;99.90;;;;;;6254039;22;20194;-77
2023/08/08 07:36:28;;;;;;;10.82;10.52;;;16.00;99.90;;;;;;6254287;22;20190;-79
2023/08/08 07:38:59;;;;;;;11.00;10.70;;;16.10;99.90;;;;;;6254174;22;20190;-79
2023/08/08 07:41:28;;;;;;;10.75;10.45;;;16.20;99.90;;;;;;6254288;22;20225;-79
2023/08/08 07:43:55;;;;;;;10.98;10.68;;;16.30;99.90;;;;;;6254268;22;20276;-78
2023/08/08 07:46:22;;;;;;;10.93;10.63;;;16.40;99.90;;;;;;6254577;22;20226;-79
2023/08/08 07:48:49;;;;;;;10.98;10.68;;;16.50;99.90;;;;;;6254806;22;20206;-79
2023/08/08 07:51:16;;;;;;;10.98;10.68;;;16.60;99.90;;;;;;6254250;22;20241;-78
2023/08/08 07:53:43;;;;;;;10.75;10.45;;;16.80;99.90;;;;;;6254915;22;20200;-79
2023/08/08 07:56:10;;;;;;;10.55;10.25;;;16.80;99.90;;;;;;6254928;22;20197;-79
2023/08/08 07:58:39;;;;;;;10.60;10.30;;;16.90;99.90;;;;;;6254760;22;20202;-78
2023/08/08 08:01:06;;;;;;;10.50;10.20;;;17.00;99.90;;;;;;6254405;22;20249;-79
2023/08/08 08:03:33;;;;;;;10.70;10.40;;;17.10;99.90;;;;;;6255124;22;20213;-79
2023/08/08 08:06:00;;;;;;;10.80;10.50;;;17.20;99.90;;;;;;6254882;22;20196;-79
2023/08/08 08:08:27;;;;;;;10.55;10.25;;;17.30;99.90;;;;;;6255112;22;20209;-79
2023/08/08 08:10:54;;;;;;;10.75;10.45;;;17.50;99.90;;;;;;6254731;22;20257;-79
2023/08/08 08:13:21;;;;;;;10.32;10.02;;;17.70;99.90;;;;;;6254905;22;20773;-79
2023/08/08 08:15:50;;;;;;;10.68;10.38;;;17.90;99.90;;;;;;6263137;22;20256;-79
2023/08/08 08:18:17;;;;;;;10.30;10.00;;;17.90;99.90;;;;;;6254826;22;20245;-79
2023/08/08 08:20:44;;;;;;;10.43;10.13;;;17.90;99.90;;;;;;6253693;22;20201;-79
2023/08/08 08:23:11;;;;;;;10.80;10.50;;;17.90;99.90;;;;;;6254939;22;20274;-78
2023/08/08 08:25:38;;;;;;;10.98;10.68;;;18.00;99.90;;;;;;6255914;22;20197;-79
2023/08/08 08:28:06;;;;;;;10.75;10.45;;;18.10;99.90;;;;;;6254841;22;20209;-78
2023/08/08 08:30:33;;;;;;;10.88;10.57;;;18.10;99.90;;;;;;6254419;22;20195;-78
2023/08/08 08:33:03;;;;;;;10.80;10.50;;;18.10;99.90;;;;;;6254872;22;20269;-78
2023/08/08 08:35:31;;;;;;;10.85;10.55;;;18.20;99.90;;;;;;6257638;22;20249;-79
2023/08/08 08:37:57;;;;;;;10.98;10.68;;;18.40;99.90;;;;;;6255646;22;20237;-79
2023/08/08 08:40:25;;;;;;;11.05;10.75;;;18.40;99.90;;;;;;6259804;22;20198;-80
2023/08/08 08:42:53;;;;;;;11.02;10.73;;;18.40;99.90;;;;;;6260250;22;20222;-78
2023/08/08 08:45:22;;;;;;;11.10;10.80;;;18.40;99.90;;;;;;6266321;22;20201;-77
2023/08/08 08:47:51;;;;;;;10.80;10.50;;;18.50;99.90;;;;;;6256969;22;20236;-79
2023/08/08 08:50:20;;;;;;;10.70;10.40;;;18.50;99.90;;;;;;6256081;22;20194;-78
2023/08/08 08:52:47;;;;;;;10.63;10.32;;;18.50;99.90;;;;;;6255291;22;20253;-79
2023/08/08 08:55:14;;;;;;;10.65;10.35;;;18.50;99.90;;;;;;6255277;22;20236;-79
2023/08/08 08:57:41;;;;;;;10.70;10.40;;;18.40;99.90;;;;;;6255414;22;20209;-79
2023/08/08 09:00:10;;;;;;;10.50;10.20;;;18.50;99.90;;;;;;6255483;22;20198;-79
2023/08/08 09:02:38;;;;;;;10.60;10.30;;;18.50;99.90;;;;;;6255539;22;20229;-79
2023/08/08 09:05:05;;;;;;;10.73;10.43;;;18.80;99.90;;;;;;6255224;22;20246;-78
2023/08/08 09:07:34;;;;;;;10.70;10.40;;;18.90;99.90;;;;;;6266292;22;20198;-79
2023/08/08 09:10:01;;;;;;;10.50;10.20;;;18.90;99.90;;;;;;6259986;22;20233;-79
2023/08/08 09:12:28;;;;;;;10.60;10.30;;;18.80;99.90;;;;;;6259302;22;20206;-79
2023/08/08 09:14:57;;;;;;;10.63;10.32;;;18.90;99.90;;;;;;6258215;22;20206;-78
2023/08/08 09:17:26;;;;;;;10.57;10.27;;;19.00;99.90;;;;;;6256254;22;20212;-79
2023/08/08 09:19:55;;;;;;;10.55;10.25;;;19.10;99.90;;;;;;6255906;22;20205;-79
2023/08/08 09:22:23;;;;;;;10.40;10.10;;;19.10;99.90;;;;;;6256042;22;20272;-79
2023/08/08 09:24:52;;;;;;;10.55;10.25;;;19.10;99.90;;;;;;6255035;22;20248;-79
2023/08/08 15:29:12;;;;;;;9.93;9.63;;;21.30;99.90;;;;;;6247537;22;20205;-88
2023/08/08 15:31:45;;;;;;;10.10;9.80;;;21.30;99.90;;;;;;6256129;22;20202;-88
2023/08/08 15:34:18;;;;;;;10.10;9.80;;;21.40;99.90;;;;;;6256229;22;20198;-88
2023/08/08 15:36:49;;;;;;;10.30;10.00;;;21.50;99.90;;;;;;6256572;22;20206;-88
2023/08/08 15:39:22;;;;;;;10.45;10.15;;;21.50;99.90;;;;;;6256569;22;20218;-88
2023/08/08 15:41:52;;;;;;;10.35;10.05;;;21.50;99.90;;;;;;6256811;22;20229;-88
2023/08/08 15:44:30;;;;;;;10.30;10.00;;;21.40;99.90;;;;;;6256882;22;20202;-88
2023/08/08 15:47:09;;;;;;;10.40;10.10;;;21.40;99.90;;;;;;6257365;22;20200;-88
2023/08/08 15:49:41;;;;;;;10.10;9.80;;;21.40;99.90;;;;;;6256671;22;20206;-88
2023/08/08 15:52:15;;;;;;;10.30;10.00;;;21.40;99.90;;;;;;6256045;22;20194;-88
2023/08/08 15:54:43;;;;;;;10.30;10.00;;;21.40;99.90;;;;;;6256448;22;20198;-88
2023/08/08 15:57:16;;;;;;;10.18;9.88;;;21.40;99.90;;;;;;6256110;22;20186;-88
2023/08/08 15:59:55;;;;;;;10.20;9.90;;;21.40;99.90;;;;;;6225746;23;20198;-88
2023/08/08 16:03:03;;;;;;;10.07;9.77;;;21.40;99.90;;;;;;6227854;23;20259;-87
2023/08/08 16:05:40;;;;;;;9.90;9.60;;;21.20;99.90;;;;;;6189428;23;20290;-88
2023/08/08 16:08:12;;;;;;;10.15;9.85;;;21.10;99.90;;;;;;6231405;23;20186;-88
2023/08/08 16:10:42;;;;;;;9.82;9.52;;;21.10;99.90;;;;;;6228919;23;20199;-88
2023/08/08 16:13:12;;;;;;;9.90;9.60;;;21.20;99.90;;;;;;6227886;23;20205;-87
2023/08/08 16:15:55;;;;;;;10.10;9.80;;;21.20;99.90;;;;;;6226618;23;20282;-89
2023/08/08 16:18:37;;;;;;;10.20;9.90;;;21.20;99.90;;;;;;6226504;23;20187;-86
2023/08/08 16:21:08;;;;;;;9.80;9.50;;;21.20;99.90;;;;;;6226958;23;20238;-88
2023/08/08 16:23:39;;;;;;;10.00;9.70;;;21.20;99.90;;;;;;6237545;22;20206;-87
2023/08/08 16:26:07;;;;;;;10.02;9.73;;;21.10;99.90;;;;;;6249197;22;20246;-87
2023/08/08 16:28:36;;;;;;;9.68;9.38;;;21.00;99.90;;;;;;6239486;22;20203;-87
2023/08/08 16:31:07;;;;;;;9.57;9.27;;;21.00;99.90;;;;;;6234641;23;20242;-88
2023/08/08 16:33:49;;;;;;;;;;;;;;;;;;;;;
2023/08/08 16:36:18;;;;;;;10.20;9.90;;;21.30;99.90;;;;;;6225642;23;20202;-88
2023/08/08 16:38:56;;;;;;;10.35;10.05;;;21.50;99.90;;;;;;6225495;23;20262;-88
2023/08/08 16:41:29;;;;;;;10.07;9.77;;;21.60;99.90;;;;;;6225536;23;20191;-88
2023/08/08 16:44:20;;;;;;;10.30;10.00;;;21.50;99.90;;;;;;6226049;23;20187;-87
2023/08/08 16:46:52;;;;;;;10.20;9.90;;;21.50;99.90;;;;;;6226634;23;20225;-87
2023/08/08 16:49:26;;;;;;;10.15;9.85;;;21.50;99.90;;;;;;6232887;23;20199;-86
2023/08/08 16:52:00;;;;;;;9.98;9.68;;;21.40;99.90;;;;;;6248200;22;20183;-86
2023/08/08 16:54:36;;;;;;;10.20;9.90;;;21.40;99.90;;;;;;6237035;23;20250;-86
2023/08/08 16:57:12;;;;;;;10.10;9.80;;;21.50;99.90;;;;;;6227717;23;20218;-87
2023/08/08 16:59:47;;;;;;;10.15;9.85;;;21.60;99.90;;;;;;6225978;23;20207;-86
2023/08/08 17:02:24;;;;;;;10.15;9.85;;;21.40;99.90;;;;;;6226045;23;20198;-88
2023/08/08 17:04:58;;;;;;;9.90;9.60;;;21.40;99.90;;;;;;6226589;23;20193;-88
2023/08/08 17:07:36;;;;;;;10.00;9.70;;;21.40;99.90;;;;;;6226123;23;20282;-86
2023/08/08 17:10:10;;;;;;;10.10;9.80;;;21.50;99.90;;;;;;6226228;23;20195;-87
2023/08/08 17:12:40;;;;;;;10.10;9.80;;;21.70;99.90;;;;;;6226609;23;20191;-87
2023/08/08 17:15:19;;;;;;;9.93;9.63;;;21.80;99.90;;;;;;6226806;23;20214;-88
2023/08/08 17:17:57;;;;;;;10.20;9.90;;;21.80;99.90;;;;;;6226861;23;20199;-87
2023/08/08 17:20:25;;;;;;;10.50;10.20;;;21.80;99.90;;;;;;6226845;23;20206;-88
2023/08/08 17:22:53;;;;;;;10.13;9.82;;;21.60;99.90;;;;;;6226522;23;20209;-88
2023/08/08 17:25:36;;;;;;;10.05;9.75;;;21.50;99.90;;;;;;6226388;23;20681;-88
2023/08/08 17:28:04;;;;;;;10.07;9.77;;;21.20;99.90;;;;;;6227747;23;20202;-88
2023/08/08 17:30:40;;;;;;;9.70;9.40;;;20.90;99.90;;;;;;6228898;23;20206;-87
2023/08/08 17:33:36;;;;;;;9.80;9.50;;;20.80;99.90;;;;;;6227159;23;20201;-87
2023/08/08 17:36:18;;;;;;;;;;;;;;;;;;;;;
2023/08/08 17:39:00;;;;;;;9.90;9.60;;;20.50;99.90;;;;;;6198471;23;20271;-87
2023/08/08 17:41:33;;;;;;;10.10;9.80;;;20.50;99.90;;;;;;6225866;23;20218;-87
2023/08/08 17:44:01;;;;;;;9.77;9.48;;;20.30;99.90;;;;;;6226162;23;20199;-87
2023/08/08 17:46:29;;;;;;;9.60;9.30;;;20.30;99.90;;;;;;6227047;23;20285;-87
2023/08/08 17:49:07;;;;;;;9.65;9.35;;;20.20;99.90;;;;;;6226391;23;20230;-87
2023/08/08 17:51:36;;;;;;;10.07;9.77;;;20.10;99.90;;;;;;6227336;23;20205;-88
2023/08/08 17:54:06;;;;;;;9.90;9.60;;;20.00;99.90;;;;;;6226730;23;20198;-88
2023/08/08 17:56:37;;;;;;;9.77;9.48;;;20.00;99.90;;;;;;6225870;23;20226;-87
2023/08/08 17:59:08;;;;;;;9.80;9.50;;;19.90;99.90;;;;;;6225836;23;20242;-87
2023/08/08 18:01:43;;;;;;;9.70;9.40;;;19.90;99.90;;;;;;6226728;23;20198;-87
2023/08/08 18:04:13;;;;;;;9.80;9.50;;;19.90;99.90;;;;;;6226717;23;20202;-87
2023/08/08 18:06:43;;;;;;;9.80;9.50;;;19.80;99.90;;;;;;6227428;23;20262;-87
2023/08/08 18:09:21;;;;;;;9.77;9.48;;;19.80;99.90;;;;;;6232368;23;20202;-88
2023/08/08 18:11:55;;;;;;;9.73;9.43;;;19.70;99.90;;;;;;6231818;23;20199;-87
2023/08/08 18:14:24;;;;;;;9.73;9.43;;;19.70;99.90;;;;;;6228467;23;20238;-88
2023/08/08 18:16:52;;;;;;;9.50;9.20;;;19.60;99.90;;;;;;6226485;23;20275;-88
2023/08/08 18:19:32;;;;;;;9.90;9.60;;;19.60;99.90;;;;;;6228601;23;20203;-89
2023/08/08 18:21:59;;;;;;;9.88;9.57;;;19.50;99.90;;;;;;6242242;23;20186;-86
2023/08/08 18:24:31;;;;;;;9.88;9.57;;;19.50;99.90;;;;;;6249129;22;20191;-86
2023/08/08 18:27:04;;;;;;;9.50;9.20;;;19.40;99.90;;;;;;6249425;22;20191;-86
2023/08/08 18:29:34;;;;;;;9.80;9.50;;;19.40;99.90;;;;;;6233158;23;20217;-86
2023/08/08 18:32:13;;;;;;;9.38;9.07;;;19.40;99.90;;;;;;6227776;23;20195;-87
2023/08/08 18:35:07;;;;;;;;;;;;;;;;;;;;;
2023/08/08 18:37:46;;;;;;;9.52;9.23;;;19.30;99.90;;;;;;6227160;23;20273;-86
2023/08/08 18:40:22;;;;;;;9.48;9.18;;;19.30;99.90;;;;;;6226285;23;20250;-85
2023/08/08 18:42:55;;;;;;;9.35;9.05;;;19.30;99.90;;;;;;6225355;23;20206;-85
2023/08/08 18:45:47;;;;;;;;;;;;;;;;;;;;;
2023/08/08 18:48:34;;;;;;;;;;;;;;;;;;;;;
2023/08/08 18:51:17;;;;;;;9.50;9.20;;;19.30;99.90;;;;;;6236389;22;20198;-86
2023/08/08 18:53:50;;;;;;;9.40;9.10;;;19.20;99.90;;;;;;6226888;23;20211;-86
2023/08/08 18:56:28;;;;;;;9.40;9.10;;;19.10;99.90;;;;;;6226644;23;20203;-86
2023/08/08 18:59:17;;;;;;;8.80;8.60;;;19.10;99.90;;;;;;6225954;23;20229;-86